sensor_id;sensor_type;location;lat;lon;timestamp;temperature;humidity
10702;DHT22;5402;50.004;8.246;2022-10-31T00:01:19;10.80;99.90
10702;DHT22;5402;50.004;8.246;2022-10-31T00:03:47;10.80;99.90
10702;DHT22;5402;50.004;8.246;2022-10-31T00:06:15;10.80;99.90
10702;DHT22;5402;50.004;8.246;2022-10-31T00:08:44;10.90;99.90
10702;DHT22;5402;50.004;8.246;2022-10-31T00:11:10;10.80;99.90
10702;DHT22;5402;50.004;8.246;2022-10-31T00:13:37;10.80;99.90
10702;DHT22;5402;50.004;8.246;2022-10-31T00:16:05;10.90;99.90
10702;DHT22;5402;50.004;8.246;2022-10-31T00:18:31;10.90;99.90
10702;DHT22;5402;50.004;8.246;2022-10-31T00:21:00;10.90;99.90
10702;DHT22;5402;50.004;8.246;2022-10-31T00:23:27;10.90;99.90
10702;DHT22;5402;50.004;8.246;2022-10-31T00:25:54;11.00;99.90
10702;DHT22;5402;50.004;8.246;2022-10-31T00:28:21;11.00;99.90
10702;DHT22;5402;50.004;8.246;2022-10-31T00:30:47;11.00;99.90
10702;DHT22;5402;50.004;8.246;2022-10-31T00:33:14;11.10;99.90
10702;DHT22;5402;50.004;8.246;2022-10-31T00:35:41;11.10;99.90
10702;DHT22;5402;50.004;8.246;2022-10-31T00:38:09;11.20;99.90
10702;DHT22;5402;50.004;8.246;2022-10-31T00:40:35;11.20;99.90
10702;DHT22;5402;50.004;8.246;2022-10-31T00:43:02;11.20;99.90
10702;DHT22;5402;50.004;8.246;2022-10-31T00:45:29;11.20;99.90
10702;DHT22;5402;50.004;8.246;2022-10-31T00:47:56;11.10;99.90
10702;DHT22;5402;50.004;8.246;2022-10-31T00:50:22;11.10;99.90
10702;DHT22;5402;50.004;8.246;2022-10-31T00:52:49;11.10;99.90
10702;DHT22;5402;50.004;8.246;2022-10-31T00:55:17;11.10;99.90
10702;DHT22;5402;50.004;8.246;2022-10-31T00:57:46;11.10;99.90
10702;DHT22;5402;50.004;8.246;2022-10-31T01:00:13;11.10;99.90
10702;DHT22;5402;50.004;8.246;2022-10-31T01:02:40;11.10;99.90
10702;DHT22;5402;50.004;8.246;2022-10-31T01:05:07;11.10;99.90
10702;DHT22;5402;50.004;8.246;2022-10-31T01:07:36;11.10;99.90
10702;DHT22;5402;50.004;8.246;2022-10-31T01:10:03;11.10;99.90
10702;DHT22;5402;50.004;8.246;2022-10-31T01:12:35;11.10;99.90
10702;DHT22;5402;50.004;8.246;2022-10-31T01:15:03;11.20;99.90
10702;DHT22;5402;50.004;8.246;2022-10-31T01:17:30;11.10;99.90
10702;DHT22;5402;50.004;8.246;2022-10-31T01:19:56;11.10;99.90
10702;DHT22;5402;50.004;8.246;2022-10-31T01:22:23;11.10;99.90
10702;DHT22;5402;50.004;8.246;2022-10-31T01:24:50;11.10;99.90
10702;DHT22;5402;50.004;8.246;2022-10-31T01:27:17;11.10;99.90
10702;DHT22;5402;50.004;8.246;2022-10-31T01:29:45;11.00;99.90
10702;DHT22;5402;50.004;8.246;2022-10-31T01:32:11;11.00;99.90
10702;DHT22;5402;50.004;8.246;2022-10-31T01:34:38;11.00;99.90
10702;DHT22;5402;50.004;8.246;2022-10-31T01:37:05;11.00;99.90
10702;DHT22;5402;50.004;8.246;2022-10-31T01:39:32;10.80;99.90
10702;DHT22;5402;50.004;8.246;2022-10-31T01:41:59;10.80;99.90
10702;DHT22;5402;50.004;8.246;2022-10-31T01:44:56;10.70;99.90
10702;DHT22;5402;50.004;8.246;2022-10-31T01:47:41;10.60;99.90
10702;DHT22;5402;50.004;8.246;2022-10-31T01:50:22;10.70;99.90
10702;DHT22;5402;50.004;8.246;2022-10-31T01:52:51;10.70;99.90
10702;DHT22;5402;50.004;8.246;2022-10-31T01:55:22;10.70;99.90
10702;DHT22;5402;50.004;8.246;2022-10-31T01:57:53;10.70;99.90
10702;DHT22;5402;50.004;8.246;2022-10-31T02:00:22;10.70;99.90
10702;DHT22;5402;50.004;8.246;2022-10-31T02:02:50;10.70;99.90
10702;DHT22;5402;50.004;8.246;2022-10-31T02:05:20;10.60;99.90
10702;DHT22;5402;50.004;8.246;2022-10-31T02:07:53;10.70;99.90
10702;DHT22;5402;50.004;8.246;2022-10-31T02:10:21;10.80;99.90
10702;DHT22;5402;50.004;8.246;2022-10-31T02:12:50;10.80;99.90
10702;DHT22;5402;50.004;8.246;2022-10-31T02:15:18;10.80;99.90
10702;DHT22;5402;50.004;8.246;2022-10-31T02:17:46;10.90;99.90
10702;DHT22;5402;50.004;8.246;2022-10-31T02:20:16;10.90;99.90
10702;DHT22;5402;50.004;8.246;2022-10-31T02:23:09;10.90;99.90
10702;DHT22;5402;50.004;8.246;2022-10-31T02:26:12;11.00;99.90
10702;DHT22;5402;50.004;8.246;2022-10-31T02:28:55;11.00;99.90
10702;DHT22;5402;50.004;8.246;2022-10-31T02:31:32;11.00;99.90
10702;DHT22;5402;50.004;8.246;2022-10-31T02:34:09;10.90;99.90
10702;DHT22;5402;50.004;8.246;2022-10-31T02:36:42;10.90;99.90
10702;DHT22;5402;50.004;8.246;2022-10-31T02:39:15;10.90;99.90
10702;DHT22;5402;50.004;8.246;2022-10-31T02:41:47;10.80;99.90
10702;DHT22;5402;50.004;8.246;2022-10-31T02:44:20;10.80;99.90
10702;DHT22;5402;50.004;8.246;2022-10-31T02:46:52;10.80;99.90
10702;DHT22;5402;50.004;8.246;2022-10-31T02:49:24;10.70;99.90
10702;DHT22;5402;50.004;8.246;2022-10-31T02:51:53;10.70;99.90
10702;DHT22;5402;50.004;8.246;2022-10-31T02:54:23;10.70;99.90
10702;DHT22;5402;50.004;8.246;2022-10-31T02:56:53;10.70;99.90
10702;DHT22;5402;50.004;8.246;2022-10-31T02:59:22;10.60;99.90
10702;DHT22;5402;50.004;8.246;2022-10-31T03:02:04;10.60;99.90
10702;DHT22;5402;50.004;8.246;2022-10-31T03:04:46;10.60;99.90
10702;DHT22;5402;50.004;8.246;2022-10-31T03:07:22;10.60;99.90
10702;DHT22;5402;50.004;8.246;2022-10-31T03:09:56;10.50;99.90
10702;DHT22;5402;50.004;8.246;2022-10-31T03:12:29;10.40;99.90
10702;DHT22;5402;50.004;8.246;2022-10-31T03:15:04;10.40;99.90
10702;DHT22;5402;50.004;8.246;2022-10-31T03:17:37;10.40;99.90
10702;DHT22;5402;50.004;8.246;2022-10-31T03:20:06;10.30;99.90
10702;DHT22;5402;50.004;8.246;2022-10-31T03:22:38;10.20;99.90
10702;DHT22;5402;50.004;8.246;2022-10-31T03:25:07;10.20;99.90
10702;DHT22;5402;50.004;8.246;2022-10-31T03:27:36;10.20;99.90
10702;DHT22;5402;50.004;8.246;2022-10-31T03:30:06;10.20;99.90
10702;DHT22;5402;50.004;8.246;2022-10-31T03:32:38;10.20;99.90
10702;DHT22;5402;50.004;8.246;2022-10-31T03:35:08;10.20;99.90
10702;DHT22;5402;50.004;8.246;2022-10-31T03:37:37;10.20;99.90
10702;DHT22;5402;50.004;8.246;2022-10-31T03:40:07;10.20;99.90
10702;DHT22;5402;50.004;8.246;2022-10-31T03:42:38;10.10;99.90
10702;DHT22;5402;50.004;8.246;2022-10-31T03:45:09;10.10;99.90
10702;DHT22;5402;50.004;8.246;2022-10-31T03:47:40;10.10;99.90
10702;DHT22;5402;50.004;8.246;2022-10-31T03:50:09;10.20;99.90
10702;DHT22;5402;50.004;8.246;2022-10-31T03:52:42;10.10;99.90
10702;DHT22;5402;50.004;8.246;2022-10-31T03:55:17;10.10;99.90
10702;DHT22;5402;50.004;8.246;2022-10-31T03:57:47;10.10;99.90
10702;DHT22;5402;50.004;8.246;2022-10-31T04:00:16;10.10;99.90
10702;DHT22;5402;50.004;8.246;2022-10-31T04:02:47;10.00;99.90
10702;DHT22;5402;50.004;8.246;2022-10-31T04:05:16;9.90;99.90
10702;DHT22;5402;50.004;8.246;2022-10-31T04:07:47;9.90;99.90
10702;DHT22;5402;50.004;8.246;2022-10-31T04:10:16;9.90;99.90
10702;DHT22;5402;50.004;8.246;2022-10-31T04:12:48;9.90;99.90
10702;DHT22;5402;50.004;8.246;2022-10-31T04:15:25;9.80;99.90
10702;DHT22;5402;50.004;8.246;2022-10-31T04:17:58;9.80;99.90
10702;DHT22;5402;50.004;8.246;2022-10-31T04:20:33;9.80;99.90
10702;DHT22;5402;50.004;8.246;2022-10-31T04:23:00;9.90;99.90
10702;DHT22;5402;50.004;8.246;2022-10-31T04:25:27;9.90;99.90
10702;DHT22;5402;50.004;8.246;2022-10-31T04:27:54;9.90;99.90
10702;DHT22;5402;50.004;8.246;2022-10-31T04:30:21;10.00;99.90
10702;DHT22;5402;50.004;8.246;2022-10-31T04:32:48;9.90;99.90
10702;DHT22;5402;50.004;8.246;2022-10-31T04:35:16;9.90;99.90
10702;DHT22;5402;50.004;8.246;2022-10-31T04:37:43;9.90;99.90
10702;DHT22;5402;50.004;8.246;2022-10-31T04:40:10;9.80;99.90
10702;DHT22;5402;50.004;8.246;2022-10-31T04:42:37;9.90;99.90
10702;DHT22;5402;50.004;8.246;2022-10-31T04:45:05;9.90;99.90
10702;DHT22;5402;50.004;8.246;2022-10-31T04:47:32;9.90;99.90
10702;DHT22;5402;50.004;8.246;2022-10-31T04:49:59;9.90;99.90
10702;DHT22;5402;50.004;8.246;2022-10-31T04:52:27;9.80;99.90
10702;DHT22;5402;50.004;8.246;2022-10-31T04:54:55;9.90;99.90
10702;DHT22;5402;50.004;8.246;2022-10-31T04:57:22;9.90;99.90
10702;DHT22;5402;50.004;8.246;2022-10-31T04:59:48;9.90;99.90
10702;DHT22;5402;50.004;8.246;2022-10-31T05:02:15;10.00;99.90
10702;DHT22;5402;50.004;8.246;2022-10-31T05:04:42;9.90;99.90
10702;DHT22;5402;50.004;8.246;2022-10-31T05:07:08;9.80;99.90
10702;DHT22;5402;50.004;8.246;2022-10-31T05:09:37;9.80;99.90
10702;DHT22;5402;50.004;8.246;2022-10-31T05:12:03;9.90;99.90
10702;DHT22;5402;50.004;8.246;2022-10-31T05:14:30;9.90;99.90
10702;DHT22;5402;50.004;8.246;2022-10-31T05:16:57;9.90;99.90
10702;DHT22;5402;50.004;8.246;2022-10-31T05:19:24;10.00;99.90
10702;DHT22;5402;50.004;8.246;2022-10-31T05:21:50;9.90;99.90
10702;DHT22;5402;50.004;8.246;2022-10-31T05:24:17;10.00;99.90
10702;DHT22;5402;50.004;8.246;2022-10-31T05:26:48;9.90;99.90
10702;DHT22;5402;50.004;8.246;2022-10-31T05:29:15;9.90;99.90
10702;DHT22;5402;50.004;8.246;2022-10-31T05:31:42;9.90;99.90
10702;DHT22;5402;50.004;8.246;2022-10-31T05:34:09;10.00;99.90
10702;DHT22;5402;50.004;8.246;2022-10-31T05:36:35;9.90;99.90
10702;DHT22;5402;50.004;8.246;2022-10-31T05:39:02;9.80;99.90
10702;DHT22;5402;50.004;8.246;2022-10-31T05:41:29;9.70;99.90
10702;DHT22;5402;50.004;8.246;2022-10-31T05:43:57;9.70;99.90
10702;DHT22;5402;50.004;8.246;2022-10-31T05:46:24;9.80;99.90
10702;DHT22;5402;50.004;8.246;2022-10-31T05:48:50;9.70;99.90
10702;DHT22;5402;50.004;8.246;2022-10-31T05:51:17;9.70;99.90
10702;DHT22;5402;50.004;8.246;2022-10-31T05:53:46;9.80;99.90
10702;DHT22;5402;50.004;8.246;2022-10-31T05:56:12;9.80;99.90
10702;DHT22;5402;50.004;8.246;2022-10-31T05:58:39;9.70;99.90
10702;DHT22;5402;50.004;8.246;2022-10-31T06:01:07;9.70;99.90
10702;DHT22;5402;50.004;8.246;2022-10-31T06:03:34;9.70;99.90
10702;DHT22;5402;50.004;8.246;2022-10-31T06:06:00;9.70;99.90
10702;DHT22;5402;50.004;8.246;2022-10-31T06:08:27;9.80;99.90
10702;DHT22;5402;50.004;8.246;2022-10-31T06:10:54;9.80;99.90
10702;DHT22;5402;50.004;8.246;2022-10-31T06:13:21;9.90;99.90
10702;DHT22;5402;50.004;8.246;2022-10-31T06:15:47;9.80;99.90
10702;DHT22;5402;50.004;8.246;2022-10-31T06:18:15;9.90;99.90
10702;DHT22;5402;50.004;8.246;2022-10-31T06:20:42;10.00;99.90
10702;DHT22;5402;50.004;8.246;2022-10-31T06:23:09;10.00;99.90
10702;DHT22;5402;50.004;8.246;2022-10-31T06:25:36;9.90;99.90
10702;DHT22;5402;50.004;8.246;2022-10-31T06:28:02;9.90;99.90
10702;DHT22;5402;50.004;8.246;2022-10-31T06:30:32;9.90;99.90
10702;DHT22;5402;50.004;8.246;2022-10-31T06:33:03;10.00;99.90
10702;DHT22;5402;50.004;8.246;2022-10-31T06:35:31;10.00;99.90
10702;DHT22;5402;50.004;8.246;2022-10-31T06:37:58;10.10;99.90
10702;DHT22;5402;50.004;8.246;2022-10-31T06:40:25;10.20;99.90
10702;DHT22;5402;50.004;8.246;2022-10-31T06:42:59;10.30;99.90
10702;DHT22;5402;50.004;8.246;2022-10-31T06:45:26;10.30;99.90
10702;DHT22;5402;50.004;8.246;2022-10-31T06:47:54;10.30;99.90
10702;DHT22;5402;50.004;8.246;2022-10-31T06:50:21;10.30;99.90
10702;DHT22;5402;50.004;8.246;2022-10-31T06:52:53;10.40;99.90
10702;DHT22;5402;50.004;8.246;2022-10-31T06:55:21;10.50;99.90
10702;DHT22;5402;50.004;8.246;2022-10-31T06:57:51;10.60;99.90
10702;DHT22;5402;50.004;8.246;2022-10-31T07:00:19;10.70;99.90
10702;DHT22;5402;50.004;8.246;2022-10-31T07:02:53;10.70;99.90
10702;DHT22;5402;50.004;8.246;2022-10-31T07:05:20;10.80;99.90
10702;DHT22;5402;50.004;8.246;2022-10-31T07:07:47;10.90;99.90
10702;DHT22;5402;50.004;8.246;2022-10-31T07:10:19;10.90;99.90
10702;DHT22;5402;50.004;8.246;2022-10-31T07:12:45;11.10;99.90
10702;DHT22;5402;50.004;8.246;2022-10-31T07:15:12;11.00;99.90
10702;DHT22;5402;50.004;8.246;2022-10-31T07:17:39;11.20;99.90
10702;DHT22;5402;50.004;8.246;2022-10-31T07:20:06;11.20;99.90
10702;DHT22;5402;50.004;8.246;2022-10-31T07:22:34;11.20;99.90
10702;DHT22;5402;50.004;8.246;2022-10-31T07:25:01;11.30;99.90
10702;DHT22;5402;50.004;8.246;2022-10-31T07:27:35;11.30;99.90
10702;DHT22;5402;50.004;8.246;2022-10-31T07:30:02;11.40;99.90
10702;DHT22;5402;50.004;8.246;2022-10-31T07:32:37;11.50;99.90
10702;DHT22;5402;50.004;8.246;2022-10-31T07:35:04;11.50;99.90
10702;DHT22;5402;50.004;8.246;2022-10-31T07:37:31;11.70;99.90
10702;DHT22;5402;50.004;8.246;2022-10-31T07:39:57;11.80;99.90
10702;DHT22;5402;50.004;8.246;2022-10-31T07:42:24;11.90;99.90
10702;DHT22;5402;50.004;8.246;2022-10-31T07:44:52;12.00;99.90
10702;DHT22;5402;50.004;8.246;2022-10-31T07:47:19;12.20;99.90
10702;DHT22;5402;50.004;8.246;2022-10-31T07:49:46;12.30;99.90
10702;DHT22;5402;50.004;8.246;2022-10-31T07:52:12;12.20;99.90
10702;DHT22;5402;50.004;8.246;2022-10-31T07:54:39;12.30;99.90
10702;DHT22;5402;50.004;8.246;2022-10-31T07:57:06;12.40;99.90
10702;DHT22;5402;50.004;8.246;2022-10-31T07:59:33;12.50;99.90
10702;DHT22;5402;50.004;8.246;2022-10-31T08:02:01;12.60;99.90
10702;DHT22;5402;50.004;8.246;2022-10-31T08:04:27;12.60;99.90
10702;DHT22;5402;50.004;8.246;2022-10-31T08:06:54;12.60;99.90
10702;DHT22;5402;50.004;8.246;2022-10-31T08:09:21;12.60;99.90
10702;DHT22;5402;50.004;8.246;2022-10-31T08:11:48;12.60;99.90
10702;DHT22;5402;50.004;8.246;2022-10-31T08:14:14;12.70;99.90
10702;DHT22;5402;50.004;8.246;2022-10-31T08:16:41;12.80;99.90
10702;DHT22;5402;50.004;8.246;2022-10-31T08:19:09;12.90;99.90
10702;DHT22;5402;50.004;8.246;2022-10-31T08:21:36;13.00;99.90
10702;DHT22;5402;50.004;8.246;2022-10-31T08:24:03;13.10;99.90
10702;DHT22;5402;50.004;8.246;2022-10-31T08:26:30;13.20;99.90
10702;DHT22;5402;50.004;8.246;2022-10-31T08:28:56;13.40;99.90
10702;DHT22;5402;50.004;8.246;2022-10-31T08:31:23;13.30;99.90
10702;DHT22;5402;50.004;8.246;2022-10-31T08:33:52;13.30;99.90
10702;DHT22;5402;50.004;8.246;2022-10-31T08:36:21;13.30;99.90
10702;DHT22;5402;50.004;8.246;2022-10-31T08:38:48;13.40;99.90
10702;DHT22;5402;50.004;8.246;2022-10-31T08:41:15;13.40;99.90
10702;DHT22;5402;50.004;8.246;2022-10-31T08:43:41;13.40;99.90
10702;DHT22;5402;50.004;8.246;2022-10-31T08:46:08;13.50;99.90
10702;DHT22;5402;50.004;8.246;2022-10-31T08:48:35;13.60;99.90
10702;DHT22;5402;50.004;8.246;2022-10-31T08:51:02;13.60;99.90
10702;DHT22;5402;50.004;8.246;2022-10-31T08:53:30;13.70;99.90
10702;DHT22;5402;50.004;8.246;2022-10-31T08:55:57;13.70;99.90
10702;DHT22;5402;50.004;8.246;2022-10-31T08:58:24;13.80;99.90
10702;DHT22;5402;50.004;8.246;2022-10-31T09:00:52;13.90;99.90
10702;DHT22;5402;50.004;8.246;2022-10-31T09:03:21;13.90;99.90
10702;DHT22;5402;50.004;8.246;2022-10-31T09:05:48;13.90;99.90
10702;DHT22;5402;50.004;8.246;2022-10-31T09:08:16;13.90;99.90
10702;DHT22;5402;50.004;8.246;2022-10-31T09:10:44;14.00;99.90
10702;DHT22;5402;50.004;8.246;2022-10-31T09:13:13;14.00;99.90
10702;DHT22;5402;50.004;8.246;2022-10-31T09:15:41;14.00;99.90
10702;DHT22;5402;50.004;8.246;2022-10-31T09:18:09;14.10;99.90
10702;DHT22;5402;50.004;8.246;2022-10-31T09:20:37;14.10;99.90
10702;DHT22;5402;50.004;8.246;2022-10-31T09:23:06;14.20;99.90
10702;DHT22;5402;50.004;8.246;2022-10-31T09:25:33;14.20;99.90
10702;DHT22;5402;50.004;8.246;2022-10-31T09:28:03;14.30;99.90
10702;DHT22;5402;50.004;8.246;2022-10-31T09:30:32;14.40;99.90
10702;DHT22;5402;50.004;8.246;2022-10-31T09:33:02;14.40;99.90
10702;DHT22;5402;50.004;8.246;2022-10-31T09:35:29;14.50;99.90
10702;DHT22;5402;50.004;8.246;2022-10-31T09:37:56;14.60;99.90
10702;DHT22;5402;50.004;8.246;2022-10-31T09:40:27;14.60;99.90
10702;DHT22;5402;50.004;8.246;2022-10-31T09:43:03;14.70;99.90
10702;DHT22;5402;50.004;8.246;2022-10-31T09:45:36;14.70;99.90
10702;DHT22;5402;50.004;8.246;2022-10-31T09:48:21;14.80;99.90
10702;DHT22;5402;50.004;8.246;2022-10-31T09:50:54;15.00;99.90
10702;DHT22;5402;50.004;8.246;2022-10-31T09:53:29;15.00;99.90
10702;DHT22;5402;50.004;8.246;2022-10-31T09:55:58;15.10;99.90
10702;DHT22;5402;50.004;8.246;2022-10-31T09:58:29;15.10;99.90
10702;DHT22;5402;50.004;8.246;2022-10-31T10:00:59;15.10;99.90
10702;DHT22;5402;50.004;8.246;2022-10-31T10:03:33;15.20;99.90
10702;DHT22;5402;50.004;8.246;2022-10-31T10:06:06;15.20;99.90
10702;DHT22;5402;50.004;8.246;2022-10-31T10:08:37;15.30;99.90
10702;DHT22;5402;50.004;8.246;2022-10-31T10:11:16;15.30;99.90
10702;DHT22;5402;50.004;8.246;2022-10-31T10:14:00;15.30;99.90
10702;DHT22;5402;50.004;8.246;2022-10-31T10:16:44;15.40;99.90
10702;DHT22;5402;50.004;8.246;2022-10-31T10:19:27;15.40;99.90
10702;DHT22;5402;50.004;8.246;2022-10-31T10:22:01;15.40;99.90
10702;DHT22;5402;50.004;8.246;2022-10-31T10:24:44;15.40;99.90
10702;DHT22;5402;50.004;8.246;2022-10-31T10:27:21;15.50;99.90
10702;DHT22;5402;50.004;8.246;2022-10-31T10:29:57;15.50;99.90
10702;DHT22;5402;50.004;8.246;2022-10-31T10:32:28;15.60;99.90
10702;DHT22;5402;50.004;8.246;2022-10-31T10:37:44;15.70;99.90
10702;DHT22;5402;50.004;8.246;2022-10-31T10:40:15;15.70;99.90
10702;DHT22;5402;50.004;8.246;2022-10-31T10:42:45;15.80;99.90
10702;DHT22;5402;50.004;8.246;2022-10-31T10:45:37;15.90;99.90
10702;DHT22;5402;50.004;8.246;2022-10-31T10:48:27;16.00;99.90
10702;DHT22;5402;50.004;8.246;2022-10-31T10:50:56;16.10;99.90
10702;DHT22;5402;50.004;8.246;2022-10-31T10:53:39;16.20;99.90
10702;DHT22;5402;50.004;8.246;2022-10-31T10:56:34;16.30;99.90
10702;DHT22;5402;50.004;8.246;2022-10-31T10:59:03;16.40;99.90
10702;DHT22;5402;50.004;8.246;2022-10-31T11:01:32;16.50;99.90
10702;DHT22;5402;50.004;8.246;2022-10-31T11:03:58;16.50;99.90
10702;DHT22;5402;50.004;8.246;2022-10-31T11:06:25;16.60;99.90
10702;DHT22;5402;50.004;8.246;2022-10-31T11:08:53;16.70;99.90
10702;DHT22;5402;50.004;8.246;2022-10-31T11:11:25;16.80;99.90
10702;DHT22;5402;50.004;8.246;2022-10-31T11:13:57;16.80;99.90
10702;DHT22;5402;50.004;8.246;2022-10-31T11:16:32;16.80;99.90
10702;DHT22;5402;50.004;8.246;2022-10-31T11:19:08;16.80;99.90
10702;DHT22;5402;50.004;8.246;2022-10-31T11:21:36;16.80;99.90
10702;DHT22;5402;50.004;8.246;2022-10-31T11:24:03;16.80;99.90
10702;DHT22;5402;50.004;8.246;2022-10-31T11:26:30;16.90;99.90
10702;DHT22;5402;50.004;8.246;2022-10-31T11:29:00;16.90;99.90
10702;DHT22;5402;50.004;8.246;2022-10-31T11:31:29;17.00;99.90
10702;DHT22;5402;50.004;8.246;2022-10-31T11:33:59;17.00;99.90
10702;DHT22;5402;50.004;8.246;2022-10-31T11:36:29;17.10;99.90
10702;DHT22;5402;50.004;8.246;2022-10-31T11:38:57;17.10;99.90
10702;DHT22;5402;50.004;8.246;2022-10-31T11:41:27;17.10;99.90
10702;DHT22;5402;50.004;8.246;2022-10-31T11:43:57;17.10;99.90
10702;DHT22;5402;50.004;8.246;2022-10-31T11:46:30;17.20;99.90
10702;DHT22;5402;50.004;8.246;2022-10-31T11:49:01;17.10;99.90
10702;DHT22;5402;50.004;8.246;2022-10-31T11:51:31;17.10;99.90
10702;DHT22;5402;50.004;8.246;2022-10-31T11:53:59;17.10;99.90
10702;DHT22;5402;50.004;8.246;2022-10-31T11:56:28;17.20;99.90
10702;DHT22;5402;50.004;8.246;2022-10-31T11:59:05;17.20;99.90
10702;DHT22;5402;50.004;8.246;2022-10-31T12:01:32;17.30;99.90
10702;DHT22;5402;50.004;8.246;2022-10-31T12:04:06;17.30;99.90
10702;DHT22;5402;50.004;8.246;2022-10-31T12:06:34;17.40;99.90
10702;DHT22;5402;50.004;8.246;2022-10-31T12:09:01;17.40;99.90
10702;DHT22;5402;50.004;8.246;2022-10-31T12:11:40;17.40;99.90
10702;DHT22;5402;50.004;8.246;2022-10-31T12:14:21;17.50;99.90
10702;DHT22;5402;50.004;8.246;2022-10-31T12:16:55;17.50;99.90
10702;DHT22;5402;50.004;8.246;2022-10-31T12:19:33;17.50;99.90
10702;DHT22;5402;50.004;8.246;2022-10-31T12:22:08;17.50;99.90
10702;DHT22;5402;50.004;8.246;2022-10-31T12:24:54;17.50;99.90
10702;DHT22;5402;50.004;8.246;2022-10-31T12:27:32;17.60;99.90
10702;DHT22;5402;50.004;8.246;2022-10-31T12:30:15;17.60;99.90
10702;DHT22;5402;50.004;8.246;2022-10-31T12:32:56;17.60;99.90
10702;DHT22;5402;50.004;8.246;2022-10-31T12:35:45;17.60;99.90
10702;DHT22;5402;50.004;8.246;2022-10-31T12:38:31;17.60;99.90
10702;DHT22;5402;50.004;8.246;2022-10-31T12:41:17;17.70;99.90
10702;DHT22;5402;50.004;8.246;2022-10-31T12:43:48;17.70;99.90
10702;DHT22;5402;50.004;8.246;2022-10-31T12:46:27;17.80;99.90
10702;DHT22;5402;50.004;8.246;2022-10-31T12:49:22;17.80;99.90
10702;DHT22;5402;50.004;8.246;2022-10-31T12:52:03;17.80;99.90
10702;DHT22;5402;50.004;8.246;2022-10-31T12:54:44;17.80;99.90
10702;DHT22;5402;50.004;8.246;2022-10-31T12:57:21;17.80;99.90
10702;DHT22;5402;50.004;8.246;2022-10-31T12:59:51;17.70;99.90
10702;DHT22;5402;50.004;8.246;2022-10-31T13:02:22;17.70;99.90
10702;DHT22;5402;50.004;8.246;2022-10-31T13:04:54;17.60;99.90
10702;DHT22;5402;50.004;8.246;2022-10-31T13:07:28;17.50;99.90
10702;DHT22;5402;50.004;8.246;2022-10-31T13:10:00;17.50;99.90
10702;DHT22;5402;50.004;8.246;2022-10-31T13:12:31;17.50;99.90
10702;DHT22;5402;50.004;8.246;2022-10-31T13:15:01;17.50;99.90
10702;DHT22;5402;50.004;8.246;2022-10-31T13:17:33;17.50;99.90
10702;DHT22;5402;50.004;8.246;2022-10-31T13:20:16;17.50;99.90
10702;DHT22;5402;50.004;8.246;2022-10-31T13:22:48;17.50;99.90
10702;DHT22;5402;50.004;8.246;2022-10-31T13:25:17;17.50;99.90
10702;DHT22;5402;50.004;8.246;2022-10-31T13:27:50;17.50;99.90
10702;DHT22;5402;50.004;8.246;2022-10-31T13:30:19;17.60;99.90
10702;DHT22;5402;50.004;8.246;2022-10-31T13:32:51;17.60;99.90
10702;DHT22;5402;50.004;8.246;2022-10-31T13:35:24;17.60;99.90
10702;DHT22;5402;50.004;8.246;2022-10-31T13:38:02;17.60;99.90
10702;DHT22;5402;50.004;8.246;2022-10-31T13:40:38;17.60;99.90
10702;DHT22;5402;50.004;8.246;2022-10-31T13:43:16;17.60;99.90
10702;DHT22;5402;50.004;8.246;2022-10-31T13:45:49;17.60;99.90
10702;DHT22;5402;50.004;8.246;2022-10-31T13:48:39;17.50;99.90
10702;DHT22;5402;50.004;8.246;2022-10-31T13:51:08;17.50;99.90
10702;DHT22;5402;50.004;8.246;2022-10-31T13:53:43;17.50;99.90
10702;DHT22;5402;50.004;8.246;2022-10-31T13:56:21;17.50;99.90
10702;DHT22;5402;50.004;8.246;2022-10-31T13:59:04;17.50;99.90
10702;DHT22;5402;50.004;8.246;2022-10-31T14:01:32;17.40;99.90
10702;DHT22;5402;50.004;8.246;2022-10-31T14:04:03;17.40;99.90
10702;DHT22;5402;50.004;8.246;2022-10-31T14:06:43;17.40;99.90
10702;DHT22;5402;50.004;8.246;2022-10-31T14:09:33;17.30;99.90
10702;DHT22;5402;50.004;8.246;2022-10-31T14:12:04;17.20;99.90
10702;DHT22;5402;50.004;8.246;2022-10-31T14:14:42;17.20;99.90
10702;DHT22;5402;50.004;8.246;2022-10-31T14:17:18;17.20;99.90
10702;DHT22;5402;50.004;8.246;2022-10-31T14:20:00;17.30;99.90
10702;DHT22;5402;50.004;8.246;2022-10-31T14:22:32;17.30;99.90
10702;DHT22;5402;50.004;8.246;2022-10-31T14:25:00;17.30;99.90
10702;DHT22;5402;50.004;8.246;2022-10-31T14:27:34;17.50;99.90
10702;DHT22;5402;50.004;8.246;2022-10-31T14:30:14;17.60;99.90
10702;DHT22;5402;50.004;8.246;2022-10-31T14:32:42;17.60;99.90
10702;DHT22;5402;50.004;8.246;2022-10-31T14:35:14;17.70;99.90
10702;DHT22;5402;50.004;8.246;2022-10-31T14:40:57;17.80;99.90
10702;DHT22;5402;50.004;8.246;2022-10-31T14:43:50;17.90;99.90
10702;DHT22;5402;50.004;8.246;2022-10-31T14:46:30;17.70;99.90
10702;DHT22;5402;50.004;8.246;2022-10-31T14:49:14;17.70;99.90
10702;DHT22;5402;50.004;8.246;2022-10-31T14:51:45;17.60;99.90
10702;DHT22;5402;50.004;8.246;2022-10-31T14:54:14;17.60;99.90
10702;DHT22;5402;50.004;8.246;2022-10-31T14:56:47;17.40;99.90
10702;DHT22;5402;50.004;8.246;2022-10-31T14:59:18;17.30;99.90
10702;DHT22;5402;50.004;8.246;2022-10-31T15:01:53;17.30;99.90
10702;DHT22;5402;50.004;8.246;2022-10-31T15:04:22;17.20;99.90
10702;DHT22;5402;50.004;8.246;2022-10-31T15:06:51;17.10;99.90
10702;DHT22;5402;50.004;8.246;2022-10-31T15:09:21;16.90;99.90
10702;DHT22;5402;50.004;8.246;2022-10-31T15:11:50;16.80;99.90
10702;DHT22;5402;50.004;8.246;2022-10-31T15:14:22;16.60;99.90
10702;DHT22;5402;50.004;8.246;2022-10-31T15:16:50;16.50;99.90
10702;DHT22;5402;50.004;8.246;2022-10-31T15:19:22;16.40;99.90
10702;DHT22;5402;50.004;8.246;2022-10-31T15:21:51;16.40;99.90
10702;DHT22;5402;50.004;8.246;2022-10-31T15:24:18;16.40;99.90
10702;DHT22;5402;50.004;8.246;2022-10-31T15:26:48;16.30;99.90
10702;DHT22;5402;50.004;8.246;2022-10-31T15:29:18;16.30;99.90
10702;DHT22;5402;50.004;8.246;2022-10-31T15:31:50;16.30;99.90
10702;DHT22;5402;50.004;8.246;2022-10-31T15:34:21;16.30;99.90
10702;DHT22;5402;50.004;8.246;2022-10-31T15:36:49;16.30;99.90
10702;DHT22;5402;50.004;8.246;2022-10-31T15:39:16;16.40;99.90
10702;DHT22;5402;50.004;8.246;2022-10-31T15:41:48;16.40;99.90
10702;DHT22;5402;50.004;8.246;2022-10-31T15:44:21;16.40;99.90
10702;DHT22;5402;50.004;8.246;2022-10-31T15:46:56;16.30;99.90
10702;DHT22;5402;50.004;8.246;2022-10-31T15:49:33;16.40;99.90
10702;DHT22;5402;50.004;8.246;2022-10-31T15:52:11;16.40;99.90
10702;DHT22;5402;50.004;8.246;2022-10-31T15:54:47;16.40;99.90
10702;DHT22;5402;50.004;8.246;2022-10-31T15:57:14;16.40;99.90
10702;DHT22;5402;50.004;8.246;2022-10-31T15:59:46;16.40;99.90
10702;DHT22;5402;50.004;8.246;2022-10-31T16:02:17;16.40;99.90
10702;DHT22;5402;50.004;8.246;2022-10-31T16:04:49;16.50;99.90
10702;DHT22;5402;50.004;8.246;2022-10-31T16:07:18;16.50;99.90
10702;DHT22;5402;50.004;8.246;2022-10-31T16:09:53;16.50;99.90
10702;DHT22;5402;50.004;8.246;2022-10-31T16:12:21;16.40;99.90
10702;DHT22;5402;50.004;8.246;2022-10-31T16:14:50;16.40;99.90
10702;DHT22;5402;50.004;8.246;2022-10-31T16:17:20;16.40;99.90